sensor_id;sensor_type;location;lat;lon;timestamp;P1;durP1;ratioP1;P2;durP2;ratioP2
45344;SDS011;31078;48.304;11.896;2023-03-13T00:01:30;3.53;;;1.50;;
45344;SDS011;31078;48.304;11.896;2023-03-13T00:03:58;6.70;;;1.90;;
45344;SDS011;31078;48.304;11.896;2023-03-13T00:06:26;3.38;;;1.58;;
45344;SDS011;31078;48.304;11.896;2023-03-13T00:08:58;5.47;;;1.83;;
45344;SDS011;31078;48.304;11.896;2023-03-13T00:11:25;6.53;;;1.80;;
45344;SDS011;31078;48.304;11.896;2023-03-13T00:13:52;3.17;;;1.50;;
45344;SDS011;31078;48.304;11.896;2023-03-13T00:16:20;2.25;;;1.40;;
45344;SDS011;31078;48.304;11.896;2023-03-13T00:18:46;5.32;;;1.30;;
45344;SDS011;31078;48.304;11.896;2023-03-13T00:21:15;6.07;;;2.92;;
45344;SDS011;31078;48.304;11.896;2023-03-13T00:23:42;7.72;;;2.28;;
45344;SDS011;31078;48.304;11.896;2023-03-13T00:26:11;3.95;;;1.80;;
45344;SDS011;31078;48.304;11.896;2023-03-13T00:28:39;3.15;;;1.10;;
45344;SDS011;31078;48.304;11.896;2023-03-13T00:31:07;6.80;;;2.58;;
45344;SDS011;31078;48.304;11.896;2023-03-13T00:33:35;10.20;;;2.33;;
45344;SDS011;31078;48.304;11.896;2023-03-13T00:36:04;3.65;;;1.70;;
45344;SDS011;31078;48.304;11.896;2023-03-13T00:38:33;11.63;;;2.55;;
45344;SDS011;31078;48.304;11.896;2023-03-13T00:41:00;8.65;;;2.38;;
45344;SDS011;31078;48.304;11.896;2023-03-13T00:43:30;10.63;;;2.25;;
45344;SDS011;31078;48.304;11.896;2023-03-13T00:45:57;2.92;;;1.77;;
45344;SDS011;31078;48.304;11.896;2023-03-13T00:48:23;3.58;;;1.50;;
45344;SDS011;31078;48.304;11.896;2023-03-13T00:50:50;3.50;;;1.23;;
45344;SDS011;31078;48.304;11.896;2023-03-13T00:53:17;2.65;;;1.20;;
45344;SDS011;31078;48.304;11.896;2023-03-13T00:55:50;3.17;;;1.10;;
45344;SDS011;31078;48.304;11.896;2023-03-13T00:58:18;2.90;;;1.30;;
45344;SDS011;31078;48.304;11.896;2023-03-13T01:00:46;2.65;;;1.30;;
45344;SDS011;31078;48.304;11.896;2023-03-13T01:03:12;6.05;;;1.85;;
45344;SDS011;31078;48.304;11.896;2023-03-13T01:05:39;4.50;;;1.80;;
45344;SDS011;31078;48.304;11.896;2023-03-13T01:08:05;4.85;;;1.50;;
45344;SDS011;31078;48.304;11.896;2023-03-13T01:10:32;4.35;;;1.80;;
45344;SDS011;31078;48.304;11.896;2023-03-13T01:12:58;5.07;;;1.67;;
45344;SDS011;31078;48.304;11.896;2023-03-13T01:15:25;3.50;;;1.60;;
45344;SDS011;31078;48.304;11.896;2023-03-13T01:17:52;6.97;;;1.95;;
45344;SDS011;31078;48.304;11.896;2023-03-13T01:20:19;3.45;;;1.80;;
45344;SDS011;31078;48.304;11.896;2023-03-13T01:22:45;10.35;;;2.20;;
45344;SDS011;31078;48.304;11.896;2023-03-13T01:25:12;4.90;;;2.13;;
45344;SDS011;31078;48.304;11.896;2023-03-13T01:27:38;8.55;;;2.28;;
45344;SDS011;31078;48.304;11.896;2023-03-13T01:30:05;10.60;;;1.90;;
45344;SDS011;31078;48.304;11.896;2023-03-13T01:32:32;8.10;;;2.03;;
45344;SDS011;31078;48.304;11.896;2023-03-13T01:35:01;5.78;;;1.80;;
45344;SDS011;31078;48.304;11.896;2023-03-13T01:37:27;7.40;;;2.42;;
45344;SDS011;31078;48.304;11.896;2023-03-13T01:39:54;8.60;;;2.20;;
45344;SDS011;31078;48.304;11.896;2023-03-13T01:42:20;9.98;;;1.65;;
45344;SDS011;31078;48.304;11.896;2023-03-13T01:44:48;16.75;;;3.10;;
45344;SDS011;31078;48.304;11.896;2023-03-13T01:47:15;11.68;;;2.33;;
45344;SDS011;31078;48.304;11.896;2023-03-13T01:49:41;9.68;;;1.92;;
45344;SDS011;31078;48.304;11.896;2023-03-13T01:52:12;8.95;;;2.08;;
45344;SDS011;31078;48.304;11.896;2023-03-13T01:54:41;10.70;;;2.28;;
45344;SDS011;31078;48.304;11.896;2023-03-13T01:57:13;7.50;;;2.30;;
45344;SDS011;31078;48.304;11.896;2023-03-13T01:59:43;8.38;;;2.05;;
45344;SDS011;31078;48.304;11.896;2023-03-13T02:02:12;13.55;;;2.38;;
45344;SDS011;31078;48.304;11.896;2023-03-13T02:04:41;7.85;;;1.73;;
45344;SDS011;31078;48.304;11.896;2023-03-13T02:07:13;5.78;;;1.63;;
45344;SDS011;31078;48.304;11.896;2023-03-13T02:09:43;6.22;;;1.95;;
45344;SDS011;31078;48.304;11.896;2023-03-13T02:12:16;4.32;;;1.70;;
45344;SDS011;31078;48.304;11.896;2023-03-13T02:14:47;9.32;;;2.10;;
45344;SDS011;31078;48.304;11.896;2023-03-13T02:17:15;5.30;;;1.60;;
45344;SDS011;31078;48.304;11.896;2023-03-13T02:19:42;9.90;;;2.33;;
45344;SDS011;31078;48.304;11.896;2023-03-13T02:22:13;6.85;;;2.10;;
45344;SDS011;31078;48.304;11.896;2023-03-13T02:24:49;6.85;;;2.10;;
45344;SDS011;31078;48.304;11.896;2023-03-13T02:27:21;5.40;;;1.80;;
45344;SDS011;31078;48.304;11.896;2023-03-13T02:29:47;8.73;;;2.17;;
45344;SDS011;31078;48.304;11.896;2023-03-13T02:32:15;10.18;;;2.15;;
45344;SDS011;31078;48.304;11.896;2023-03-13T02:34:41;6.00;;;2.13;;
45344;SDS011;31078;48.304;11.896;2023-03-13T02:37:10;8.02;;;2.50;;
45344;SDS011;31078;48.304;11.896;2023-03-13T02:39:39;8.32;;;2.22;;
45344;SDS011;31078;48.304;11.896;2023-03-13T02:42:09;7.20;;;2.20;;
45344;SDS011;31078;48.304;11.896;2023-03-13T02:44:39;11.00;;;2.20;;
45344;SDS011;31078;48.304;11.896;2023-03-13T02:47:06;3.65;;;1.55;;
45344;SDS011;31078;48.304;11.896;2023-03-13T02:49:34;4.25;;;1.85;;
45344;SDS011;31078;48.304;11.896;2023-03-13T02:52:03;7.10;;;2.35;;
45344;SDS011;31078;48.304;11.896;2023-03-13T02:54:36;2.50;;;1.40;;
45344;SDS011;31078;48.304;11.896;2023-03-13T02:57:05;4.20;;;1.83;;
45344;SDS011;31078;48.304;11.896;2023-03-13T02:59:32;4.03;;;1.98;;
45344;SDS011;31078;48.304;11.896;2023-03-13T03:02:01;4.28;;;1.70;;
45344;SDS011;31078;48.304;11.896;2023-03-13T03:04:28;4.75;;;1.73;;
45344;SDS011;31078;48.304;11.896;2023-03-13T03:06:55;12.35;;;2.40;;
45344;SDS011;31078;48.304;11.896;2023-03-13T03:09:22;18.95;;;2.60;;
45344;SDS011;31078;48.304;11.896;2023-03-13T03:11:49;19.42;;;2.85;;
45344;SDS011;31078;48.304;11.896;2023-03-13T03:14:15;4.70;;;2.40;;
45344;SDS011;31078;48.304;11.896;2023-03-13T03:16:42;9.00;;;2.40;;
45344;SDS011;31078;48.304;11.896;2023-03-13T03:19:10;6.25;;;2.22;;
45344;SDS011;31078;48.304;11.896;2023-03-13T03:21:37;3.90;;;2.08;;
45344;SDS011;31078;48.304;11.896;2023-03-13T03:24:04;5.93;;;2.10;;
45344;SDS011;31078;48.304;11.896;2023-03-13T03:26:30;5.93;;;2.20;;
45344;SDS011;31078;48.304;11.896;2023-03-13T03:28:57;3.38;;;1.60;;
45344;SDS011;31078;48.304;11.896;2023-03-13T03:31:24;2.47;;;1.67;;
45344;SDS011;31078;48.304;11.896;2023-03-13T03:33:50;3.05;;;1.85;;
45344;SDS011;31078;48.304;11.896;2023-03-13T03:36:19;3.53;;;1.80;;
45344;SDS011;31078;48.304;11.896;2023-03-13T03:38:46;3.63;;;1.70;;
45344;SDS011;31078;48.304;11.896;2023-03-13T03:41:14;3.15;;;1.95;;
45344;SDS011;31078;48.304;11.896;2023-03-13T03:43:41;2.17;;;1.15;;
45344;SDS011;31078;48.304;11.896;2023-03-13T03:46:08;29.98;;;3.70;;
45344;SDS011;31078;48.304;11.896;2023-03-13T03:48:34;15.27;;;2.20;;
45344;SDS011;31078;48.304;11.896;2023-03-13T03:51:01;18.17;;;2.70;;
45344;SDS011;31078;48.304;11.896;2023-03-13T03:53:29;17.15;;;2.47;;
45344;SDS011;31078;48.304;11.896;2023-03-13T03:55:56;15.52;;;2.47;;
45344;SDS011;31078;48.304;11.896;2023-03-13T03:58:22;6.32;;;1.65;;
45344;SDS011;31078;48.304;11.896;2023-03-13T04:00:49;18.13;;;2.75;;
45344;SDS011;31078;48.304;11.896;2023-03-13T04:03:15;16.65;;;2.42;;
45344;SDS011;31078;48.304;11.896;2023-03-13T04:05:42;14.40;;;2.80;;
45344;SDS011;31078;48.304;11.896;2023-03-13T04:08:08;9.75;;;2.47;;
45344;SDS011;31078;48.304;11.896;2023-03-13T04:10:37;8.23;;;1.85;;
45344;SDS011;31078;48.304;11.896;2023-03-13T04:13:04;4.05;;;1.70;;
45344;SDS011;31078;48.304;11.896;2023-03-13T04:15:30;1.85;;;1.23;;
45344;SDS011;31078;48.304;11.896;2023-03-13T04:17:57;3.95;;;1.83;;
45344;SDS011;31078;48.304;11.896;2023-03-13T04:20:24;2.28;;;1.50;;
45344;SDS011;31078;48.304;11.896;2023-03-13T04:22:50;3.17;;;1.17;;
45344;SDS011;31078;48.304;11.896;2023-03-13T04:25:17;2.08;;;1.25;;
45344;SDS011;31078;48.304;11.896;2023-03-13T04:27:44;1.85;;;0.90;;
45344;SDS011;31078;48.304;11.896;2023-03-13T04:30:11;1.63;;;1.00;;
45344;SDS011;31078;48.304;11.896;2023-03-13T04:32:38;4.30;;;1.50;;
45344;SDS011;31078;48.304;11.896;2023-03-13T04:35:05;1.63;;;1.10;;
45344;SDS011;31078;48.304;11.896;2023-03-13T04:37:32;2.33;;;1.00;;
45344;SDS011;31078;48.304;11.896;2023-03-13T04:39:59;1.60;;;0.90;;
45344;SDS011;31078;48.304;11.896;2023-03-13T04:42:26;1.95;;;1.10;;
45344;SDS011;31078;48.304;11.896;2023-03-13T04:44:54;1.88;;;1.20;;
45344;SDS011;31078;48.304;11.896;2023-03-13T04:47:20;1.70;;;1.10;;
45344;SDS011;31078;48.304;11.896;2023-03-13T04:49:47;5.85;;;2.50;;
45344;SDS011;31078;48.304;11.896;2023-03-13T04:52:13;6.00;;;1.88;;
45344;SDS011;31078;48.304;11.896;2023-03-13T04:54:40;9.90;;;2.45;;
45344;SDS011;31078;48.304;11.896;2023-03-13T04:57:06;15.25;;;2.60;;
45344;SDS011;31078;48.304;11.896;2023-03-13T04:59:32;12.85;;;2.47;;
45344;SDS011;31078;48.304;11.896;2023-03-13T05:02:00;13.60;;;2.63;;
45344;SDS011;31078;48.304;11.896;2023-03-13T05:04:27;12.50;;;2.50;;
45344;SDS011;31078;48.304;11.896;2023-03-13T05:06:53;9.60;;;2.15;;
45344;SDS011;31078;48.304;11.896;2023-03-13T05:09:20;11.27;;;2.60;;
45344;SDS011;31078;48.304;11.896;2023-03-13T05:11:46;7.25;;;2.00;;
45344;SDS011;31078;48.304;11.896;2023-03-13T05:14:14;11.63;;;2.60;;
45344;SDS011;31078;48.304;11.896;2023-03-13T05:16:40;12.05;;;2.45;;
45344;SDS011;31078;48.304;11.896;2023-03-13T05:19:08;3.58;;;1.70;;
45344;SDS011;31078;48.304;11.896;2023-03-13T05:21:34;2.13;;;1.58;;
45344;SDS011;31078;48.304;11.896;2023-03-13T05:24:01;3.72;;;1.70;;
45344;SDS011;31078;48.304;11.896;2023-03-13T05:26:27;12.93;;;2.53;;
45344;SDS011;31078;48.304;11.896;2023-03-13T05:28:54;3.72;;;1.73;;
45344;SDS011;31078;48.304;11.896;2023-03-13T05:31:20;2.47;;;1.50;;
45344;SDS011;31078;48.304;11.896;2023-03-13T05:33:47;2.00;;;1.33;;
45344;SDS011;31078;48.304;11.896;2023-03-13T05:36:14;5.57;;;2.90;;
45344;SDS011;31078;48.304;11.896;2023-03-13T05:38:41;2.78;;;1.60;;
45344;SDS011;31078;48.304;11.896;2023-03-13T05:41:07;1.17;;;0.90;;
45344;SDS011;31078;48.304;11.896;2023-03-13T05:43:36;2.03;;;1.13;;
45344;SDS011;31078;48.304;11.896;2023-03-13T05:46:02;4.75;;;1.33;;
45344;SDS011;31078;48.304;11.896;2023-03-13T05:48:29;6.75;;;2.17;;
45344;SDS011;31078;48.304;11.896;2023-03-13T05:50:55;7.28;;;2.88;;
45344;SDS011;31078;48.304;11.896;2023-03-13T05:53:23;3.63;;;1.35;;
45344;SDS011;31078;48.304;11.896;2023-03-13T05:55:49;9.48;;;2.45;;
45344;SDS011;31078;48.304;11.896;2023-03-13T05:58:16;6.00;;;1.63;;
45344;SDS011;31078;48.304;11.896;2023-03-13T06:00:42;4.05;;;1.98;;
45344;SDS011;31078;48.304;11.896;2023-03-13T06:03:09;6.47;;;1.73;;
45344;SDS011;31078;48.304;11.896;2023-03-13T06:05:35;4.45;;;1.70;;
45344;SDS011;31078;48.304;11.896;2023-03-13T06:08:01;8.95;;;2.47;;
45344;SDS011;31078;48.304;11.896;2023-03-13T06:10:29;10.63;;;2.95;;
45344;SDS011;31078;48.304;11.896;2023-03-13T06:12:56;9.43;;;2.47;;
45344;SDS011;31078;48.304;11.896;2023-03-13T06:15:22;9.70;;;2.40;;
45344;SDS011;31078;48.304;11.896;2023-03-13T06:17:49;6.45;;;1.80;;
45344;SDS011;31078;48.304;11.896;2023-03-13T06:20:15;10.55;;;2.90;;
45344;SDS011;31078;48.304;11.896;2023-03-13T06:22:42;8.60;;;2.33;;
45344;SDS011;31078;48.304;11.896;2023-03-13T06:25:10;10.98;;;2.45;;
45344;SDS011;31078;48.304;11.896;2023-03-13T06:27:38;11.65;;;2.60;;
45344;SDS011;31078;48.304;11.896;2023-03-13T06:30:07;5.13;;;2.25;;
45344;SDS011;31078;48.304;11.896;2023-03-13T06:32:35;9.00;;;2.17;;
45344;SDS011;31078;48.304;11.896;2023-03-13T06:35:02;8.60;;;2.33;;
45344;SDS011;31078;48.304;11.896;2023-03-13T06:37:29;5.28;;;1.90;;
45344;SDS011;31078;48.304;11.896;2023-03-13T06:39:55;6.65;;;2.40;;
45344;SDS011;31078;48.304;11.896;2023-03-13T06:42:22;7.60;;;2.45;;
45344;SDS011;31078;48.304;11.896;2023-03-13T06:44:49;7.78;;;2.63;;
45344;SDS011;31078;48.304;11.896;2023-03-13T06:47:16;9.00;;;2.38;;
45344;SDS011;31078;48.304;11.896;2023-03-13T06:49:42;10.20;;;2.60;;
45344;SDS011;31078;48.304;11.896;2023-03-13T06:52:09;5.85;;;2.72;;
45344;SDS011;31078;48.304;11.896;2023-03-13T06:54:35;6.47;;;2.40;;
45344;SDS011;31078;48.304;11.896;2023-03-13T06:57:02;9.57;;;2.80;;
45344;SDS011;31078;48.304;11.896;2023-03-13T06:59:28;6.40;;;2.33;;
45344;SDS011;31078;48.304;11.896;2023-03-13T07:01:56;6.07;;;2.10;;
45344;SDS011;31078;48.304;11.896;2023-03-13T07:04:23;5.85;;;2.20;;
45344;SDS011;31078;48.304;11.896;2023-03-13T07:06:49;4.57;;;1.85;;
45344;SDS011;31078;48.304;11.896;2023-03-13T07:09:16;7.13;;;2.10;;
45344;SDS011;31078;48.304;11.896;2023-03-13T07:11:44;8.88;;;2.33;;
45344;SDS011;31078;48.304;11.896;2023-03-13T07:14:10;9.15;;;2.50;;
45344;SDS011;31078;48.304;11.896;2023-03-13T07:16:36;6.10;;;2.00;;
45344;SDS011;31078;48.304;11.896;2023-03-13T07:19:04;6.65;;;2.10;;
45344;SDS011;31078;48.304;11.896;2023-03-13T07:21:31;6.82;;;2.20;;
45344;SDS011;31078;48.304;11.896;2023-03-13T07:23:57;4.10;;;1.77;;
45344;SDS011;31078;48.304;11.896;2023-03-13T07:26:23;5.72;;;2.10;;
45344;SDS011;31078;48.304;11.896;2023-03-13T07:28:50;6.00;;;1.95;;
45344;SDS011;31078;48.304;11.896;2023-03-13T07:31:17;3.67;;;1.90;;
45344;SDS011;31078;48.304;11.896;2023-03-13T07:33:45;4.05;;;1.92;;
45344;SDS011;31078;48.304;11.896;2023-03-13T07:36:13;3.97;;;2.30;;
45344;SDS011;31078;48.304;11.896;2023-03-13T07:38:41;4.20;;;1.80;;
45344;SDS011;31078;48.304;11.896;2023-03-13T07:41:09;4.32;;;1.88;;
45344;SDS011;31078;48.304;11.896;2023-03-13T07:43:37;4.57;;;1.95;;
45344;SDS011;31078;48.304;11.896;2023-03-13T07:46:04;4.85;;;2.55;;
45344;SDS011;31078;48.304;11.896;2023-03-13T07:48:32;5.45;;;2.20;;
45344;SDS011;31078;48.304;11.896;2023-03-13T07:50:59;4.47;;;2.40;;
45344;SDS011;31078;48.304;11.896;2023-03-13T07:53:27;3.83;;;1.85;;
45344;SDS011;31078;48.304;11.896;2023-03-13T07:55:55;4.60;;;2.63;;
45344;SDS011;31078;48.304;11.896;2023-03-13T07:58:23;3.95;;;2.13;;
45344;SDS011;31078;48.304;11.896;2023-03-13T08:00:50;3.95;;;2.13;;
45344;SDS011;31078;48.304;11.896;2023-03-13T08:03:17;3.67;;;2.00;;
45344;SDS011;31078;48.304;11.896;2023-03-13T08:05:44;3.58;;;1.58;;
45344;SDS011;31078;48.304;11.896;2023-03-13T08:08:10;2.85;;;1.45;;
45344;SDS011;31078;48.304;11.896;2023-03-13T08:10:38;2.53;;;1.38;;
45344;SDS011;31078;48.304;11.896;2023-03-13T08:13:04;2.15;;;1.27;;
45344;SDS011;31078;48.304;11.896;2023-03-13T08:15:31;2.15;;;1.30;;
45344;SDS011;31078;48.304;11.896;2023-03-13T08:17:57;2.42;;;1.30;;
45344;SDS011;31078;48.304;11.896;2023-03-13T08:20:24;1.80;;;1.00;;
45344;SDS011;31078;48.304;11.896;2023-03-13T08:22:50;3.53;;;1.30;;
45344;SDS011;31078;48.304;11.896;2023-03-13T08:25:17;2.25;;;0.98;;
45344;SDS011;31078;48.304;11.896;2023-03-13T08:27:45;2.00;;;1.13;;
45344;SDS011;31078;48.304;11.896;2023-03-13T08:30:11;3.92;;;1.20;;
45344;SDS011;31078;48.304;11.896;2023-03-13T08:32:38;2.60;;;1.27;;
45344;SDS011;31078;48.304;11.896;2023-03-13T08:35:05;1.92;;;1.10;;
45344;SDS011;31078;48.304;11.896;2023-03-13T08:37:33;2.85;;;1.58;;
45344;SDS011;31078;48.304;11.896;2023-03-13T08:39:59;4.50;;;2.15;;
45344;SDS011;31078;48.304;11.896;2023-03-13T08:42:25;3.13;;;1.48;;
45344;SDS011;31078;48.304;11.896;2023-03-13T08:44:53;8.35;;;2.53;;
45344;SDS011;31078;48.304;11.896;2023-03-13T08:47:20;11.38;;;2.53;;
45344;SDS011;31078;48.304;11.896;2023-03-13T08:49:46;14.35;;;1.98;;
45344;SDS011;31078;48.304;11.896;2023-03-13T08:52:12;7.35;;;1.80;;
45344;SDS011;31078;48.304;11.896;2023-03-13T08:54:39;14.23;;;2.45;;
45344;SDS011;31078;48.304;11.896;2023-03-13T08:57:05;8.57;;;1.98;;
45344;SDS011;31078;48.304;11.896;2023-03-13T08:59:32;6.85;;;2.17;;
45344;SDS011;31078;48.304;11.896;2023-03-13T09:02:00;15.45;;;3.00;;
45344;SDS011;31078;48.304;11.896;2023-03-13T09:04:27;6.57;;;1.30;;
45344;SDS011;31078;48.304;11.896;2023-03-13T09:06:53;9.95;;;2.03;;
45344;SDS011;31078;48.304;11.896;2023-03-13T09:09:21;16.65;;;2.58;;
45344;SDS011;31078;48.304;11.896;2023-03-13T09:11:47;12.27;;;2.53;;
45344;SDS011;31078;48.304;11.896;2023-03-13T09:14:14;8.90;;;1.98;;
45344;SDS011;31078;48.304;11.896;2023-03-13T09:16:40;8.43;;;2.08;;
45344;SDS011;31078;48.304;11.896;2023-03-13T09:19:08;9.05;;;2.20;;
45344;SDS011;31078;48.304;11.896;2023-03-13T09:21:34;8.10;;;1.90;;
45344;SDS011;31078;48.304;11.896;2023-03-13T09:24:01;4.93;;;1.58;;
45344;SDS011;31078;48.304;11.896;2023-03-13T09:26:28;4.43;;;1.52;;
45344;SDS011;31078;48.304;11.896;2023-03-13T09:28:55;8.77;;;1.83;;
45344;SDS011;31078;48.304;11.896;2023-03-13T09:31:22;5.20;;;2.08;;
45344;SDS011;31078;48.304;11.896;2023-03-13T09:33:50;8.77;;;1.92;;
45344;SDS011;31078;48.304;11.896;2023-03-13T09:36:18;11.40;;;2.15;;
45344;SDS011;31078;48.304;11.896;2023-03-13T09:38:46;7.05;;;1.67;;
45344;SDS011;31078;48.304;11.896;2023-03-13T09:41:22;8.00;;;1.58;;
45344;SDS011;31078;48.304;11.896;2023-03-13T09:43:53;7.43;;;1.90;;
45344;SDS011;31078;48.304;11.896;2023-03-13T09:46:24;6.10;;;1.60;;
45344;SDS011;31078;48.304;11.896;2023-03-13T09:48:53;4.57;;;1.20;;
45344;SDS011;31078;48.304;11.896;2023-03-13T09:51:25;3.88;;;1.50;;
45344;SDS011;31078;48.304;11.896;2023-03-13T09:53:55;4.72;;;1.58;;
45344;SDS011;31078;48.304;11.896;2023-03-13T09:56:28;6.97;;;1.77;;
45344;SDS011;31078;48.304;11.896;2023-03-13T09:58:57;5.05;;;1.48;;
45344;SDS011;31078;48.304;11.896;2023-03-13T10:01:30;4.50;;;1.20;;
45344;SDS011;31078;48.304;11.896;2023-03-13T10:04:00;4.65;;;1.55;;
45344;SDS011;31078;48.304;11.896;2023-03-13T10:06:35;7.05;;;1.98;;
45344;SDS011;31078;48.304;11.896;2023-03-13T10:09:11;5.90;;;1.90;;
45344;SDS011;31078;48.304;11.896;2023-03-13T10:11:45;4.00;;;1.30;;
45344;SDS011;31078;48.304;11.896;2023-03-13T10:14:17;5.00;;;1.60;;
45344;SDS011;31078;48.304;11.896;2023-03-13T10:16:48;4.65;;;1.52;;
45344;SDS011;31078;48.304;11.896;2023-03-13T10:19:17;3.60;;;1.52;;
45344;SDS011;31078;48.304;11.896;2023-03-13T10:21:53;5.95;;;1.83;;
45344;SDS011;31078;48.304;11.896;2023-03-13T10:24:23;4.47;;;1.60;;
45344;SDS011;31078;48.304;11.896;2023-03-13T10:26:57;5.68;;;1.50;;
45344;SDS011;31078;48.304;11.896;2023-03-13T10:29:24;3.50;;;1.30;;
45344;SDS011;31078;48.304;11.896;2023-03-13T10:31:56;7.72;;;1.63;;
45344;SDS011;31078;48.304;11.896;2023-03-13T10:34:24;7.43;;;1.77;;
45344;SDS011;31078;48.304;11.896;2023-03-13T10:36:57;4.93;;;1.48;;
45344;SDS011;31078;48.304;11.896;2023-03-13T10:39:26;7.18;;;1.90;;
45344;SDS011;31078;48.304;11.896;2023-03-13T10:41:57;8.25;;;1.95;;
45344;SDS011;31078;48.304;11.896;2023-03-13T10:44:34;5.68;;;1.23;;
45344;SDS011;31078;48.304;11.896;2023-03-13T10:47:01;4.57;;;2.08;;
45344;SDS011;31078;48.304;11.896;2023-03-13T10:49:29;5.50;;;1.50;;
45344;SDS011;31078;48.304;11.896;2023-03-13T10:51:58;2.72;;;0.90;;
45344;SDS011;31078;48.304;11.896;2023-03-13T10:54:26;1.92;;;0.70;;
45344;SDS011;31078;48.304;11.896;2023-03-13T10:57:06;1.33;;;0.50;;
45344;SDS011;31078;48.304;11.896;2023-03-13T10:59:38;1.50;;;0.80;;
45344;SDS011;31078;48.304;11.896;2023-03-13T11:02:17;2.08;;;1.05;;
45344;SDS011;31078;48.304;11.896;2023-03-13T11:04:46;6.30;;;1.50;;
45344;SDS011;31078;48.304;11.896;2023-03-13T11:07:19;4.10;;;1.42;;
45344;SDS011;31078;48.304;11.896;2023-03-13T11:09:57;4.53;;;1.30;;
45344;SDS011;31078;48.304;11.896;2023-03-13T11:12:24;7.90;;;2.03;;
45344;SDS011;31078;48.304;11.896;2023-03-13T11:14:55;7.63;;;1.58;;
45344;SDS011;31078;48.304;11.896;2023-03-13T11:17:23;6.22;;;1.60;;
45344;SDS011;31078;48.304;11.896;2023-03-13T11:20:00;4.22;;;1.30;;
45344;SDS011;31078;48.304;11.896;2023-03-13T11:22:36;6.88;;;1.80;;
45344;SDS011;31078;48.304;11.896;2023-03-13T11:28:02;5.55;;;1.25;;
45344;SDS011;31078;48.304;11.896;2023-03-13T11:31:04;5.18;;;1.65;;
45344;SDS011;31078;48.304;11.896;2023-03-13T11:33:36;5.05;;;1.42;;
45344;SDS011;31078;48.304;11.896;2023-03-13T11:36:14;7.78;;;2.00;;
45344;SDS011;31078;48.304;11.896;2023-03-13T11:38:47;6.20;;;1.85;;
45344;SDS011;31078;48.304;11.896;2023-03-13T11:41:19;2.63;;;1.20;;
45344;SDS011;31078;48.304;11.896;2023-03-13T11:46:59;6.47;;;1.75;;
45344;SDS011;31078;48.304;11.896;2023-03-13T11:49:55;7.25;;;1.67;;
45344;SDS011;31078;48.304;11.896;2023-03-13T11:52:34;2.38;;;0.98;;
45344;SDS011;31078;48.304;11.896;2023-03-13T11:55:15;2.55;;;1.00;;
45344;SDS011;31078;48.304;11.896;2023-03-13T11:57:50;2.97;;;0.90;;
45344;SDS011;31078;48.304;11.896;2023-03-13T12:00:28;1.65;;;0.70;;
45344;SDS011;31078;48.304;11.896;2023-03-13T12:03:00;3.80;;;1.00;;
45344;SDS011;31078;48.304;11.896;2023-03-13T12:05:33;3.47;;;1.10;;
45344;SDS011;31078;48.304;11.896;2023-03-13T12:08:05;2.05;;;0.90;;
45344;SDS011;31078;48.304;11.896;2023-03-13T12:10:39;0.88;;;0.70;;
45344;SDS011;31078;48.304;11.896;2023-03-13T12:13:11;1.17;;;0.70;;
45344;SDS011;31078;48.304;11.896;2023-03-13T12:15:43;1.92;;;1.10;;
45344;SDS011;31078;48.304;11.896;2023-03-13T12:18:16;1.15;;;0.60;;
45344;SDS011;31078;48.304;11.896;2023-03-13T12:20:46;0.82;;;0.63;;
45344;SDS011;31078;48.304;11.896;2023-03-13T12:23:21;1.83;;;0.60;;
45344;SDS011;31078;48.304;11.896;2023-03-13T12:25:55;3.40;;;1.10;;
45344;SDS011;31078;48.304;11.896;2023-03-13T12:28:28;3.63;;;1.00;;
45344;SDS011;31078;48.304;11.896;2023-03-13T12:31:00;3.55;;;1.35;;
45344;SDS011;31078;48.304;11.896;2023-03-13T12:33:34;3.38;;;0.90;;
45344;SDS011;31078;48.304;11.896;2023-03-13T12:36:06;2.75;;;1.48;;
45344;SDS011;31078;48.304;11.896;2023-03-13T12:38:39;2.60;;;1.00;;
45344;SDS011;31078;48.304;11.896;2023-03-13T12:41:13;4.90;;;1.05;;
45344;SDS011;31078;48.304;11.896;2023-03-13T12:43:46;6.55;;;1.48;;
45344;SDS011;31078;48.304;11.896;2023-03-13T12:46:21;6.40;;;1.52;;
45344;SDS011;31078;48.304;11.896;2023-03-13T12:55:01;6.47;;;1.42;;
45344;SDS011;31078;48.304;11.896;2023-03-13T12:57:56;6.38;;;1.60;;
45344;SDS011;31078;48.304;11.896;2023-03-13T13:00:39;2.90;;;0.90;;
45344;SDS011;31078;48.304;11.896;2023-03-13T13:03:13;5.50;;;1.25;;
45344;SDS011;31078;48.304;11.896;2023-03-13T13:05:57;5.10;;;1.70;;
45344;SDS011;31078;48.304;11.896;2023-03-13T13:08:31;7.38;;;1.15;;
45344;SDS011;31078;48.304;11.896;2023-03-13T13:17:37;3.20;;;0.80;;
45344;SDS011;31078;48.304;11.896;2023-03-13T13:20:32;4.78;;;1.55;;
45344;SDS011;31078;48.304;11.896;2023-03-13T13:32:34;3.22;;;0.90;;
45344;SDS011;31078;48.304;11.896;2023-03-13T13:35:05;2.17;;;0.75;;
45344;SDS011;31078;48.304;11.896;2023-03-13T13:40:58;5.15;;;1.10;;
45344;SDS011;31078;48.304;11.896;2023-03-13T13:43:25;4.47;;;1.00;;
45344;SDS011;31078;48.304;11.896;2023-03-13T13:45:59;1.60;;;0.70;;
45344;SDS011;31078;48.304;11.896;2023-03-13T13:48:31;3.58;;;1.00;;
45344;SDS011;31078;48.304;11.896;2023-03-13T13:51:19;2.90;;;0.90;;
45344;SDS011;31078;48.304;11.896;2023-03-13T13:53:51;1.42;;;0.70;;
45344;SDS011;31078;48.304;11.896;2023-03-13T13:56:30;2.00;;;1.13;;
45344;SDS011;31078;48.304;11.896;2023-03-13T13:59:02;2.80;;;0.90;;
45344;SDS011;31078;48.304;11.896;2023-03-13T14:02:04;9.35;;;1.25;;
45344;SDS011;31078;48.304;11.896;2023-03-13T14:04:41;3.63;;;0.85;;
45344;SDS011;31078;48.304;11.896;2023-03-13T14:07:14;2.75;;;0.80;;
45344;SDS011;31078;48.304;11.896;2023-03-13T14:09:46;2.35;;;0.90;;
45344;SDS011;31078;48.304;11.896;2023-03-13T14:12:29;4.00;;;0.80;;
45344;SDS011;31078;48.304;11.896;2023-03-13T14:15:08;4.22;;;0.90;;
45344;SDS011;31078;48.304;11.896;2023-03-13T14:17:39;2.00;;;0.70;;
45344;SDS011;31078;48.304;11.896;2023-03-13T14:20:24;2.35;;;0.70;;
45344;SDS011;31078;48.304;11.896;2023-03-13T14:22:54;2.88;;;1.35;;
45344;SDS011;31078;48.304;11.896;2023-03-13T14:25:22;5.05;;;0.80;;
45344;SDS011;31078;48.304;11.896;2023-03-13T14:27:50;1.52;;;0.70;;
45344;SDS011;31078;48.304;11.896;2023-03-13T14:30:18;1.30;;;0.63;;
45344;SDS011;31078;48.304;11.896;2023-03-13T14:32:46;5.28;;;1.35;;
45344;SDS011;31078;48.304;11.896;2023-03-13T14:35:14;1.13;;;0.80;;
45344;SDS011;31078;48.304;11.896;2023-03-13T14:37:45;0.88;;;0.55;;
45344;SDS011;31078;48.304;11.896;2023-03-13T14:40:25;0.60;;;0.52;;
45344;SDS011;31078;48.304;11.896;2023-03-13T14:42:55;2.63;;;0.85;;
45344;SDS011;31078;48.304;11.896;2023-03-13T14:45:27;1.52;;;0.60;;
45344;SDS011;31078;48.304;11.896;2023-03-13T14:48:00;2.72;;;0.70;;
45344;SDS011;31078;48.304;11.896;2023-03-13T14:50:28;2.92;;;0.82;;
45344;SDS011;31078;48.304;11.896;2023-03-13T14:52:58;3.03;;;0.90;;
45344;SDS011;31078;48.304;11.896;2023-03-13T14:55:32;1.95;;;0.70;;
45344;SDS011;31078;48.304;11.896;2023-03-13T14:58:05;1.38;;;0.80;;
45344;SDS011;31078;48.304;11.896;2023-03-13T15:00:51;2.90;;;0.90;;
45344;SDS011;31078;48.304;11.896;2023-03-13T15:03:19;2.00;;;1.10;;
45344;SDS011;31078;48.304;11.896;2023-03-13T15:05:47;3.13;;;0.80;;
45344;SDS011;31078;48.304;11.896;2023-03-13T15:08:17;3.25;;;1.00;;
45344;SDS011;31078;48.304;11.896;2023-03-13T15:10:45;2.53;;;1.10;;
45344;SDS011;31078;48.304;11.896;2023-03-13T15:13:14;1.63;;;0.80;;
45344;SDS011;31078;48.304;11.896;2023-03-13T15:15:41;3.03;;;0.77;;
45344;SDS011;31078;48.304;11.896;2023-03-13T15:18:12;3.33;;;0.88;;